sensor_id;sensor_type;location;lat;lon;timestamp;P1;P2;P0
73749;PMS7003;62058;48.406;-4.514;2023-05-02T00:00:02;3.50;0.50;0.50
73749;PMS7003;62058;48.406;-4.514;2023-05-02T00:02:28;4.25;2.25;2.25
73749;PMS7003;62058;48.406;-4.514;2023-05-02T00:04:53;6.50;4.00;3.50
73749;PMS7003;62058;48.406;-4.514;2023-05-02T00:07:19;5.00;2.50;2.50
73749;PMS7003;62058;48.406;-4.514;2023-05-02T00:09:44;2.25;1.00;1.00
73749;PMS7003;62058;48.406;-4.514;2023-05-02T00:12:10;4.50;2.00;2.00
73749;PMS7003;62058;48.406;-4.514;2023-05-02T00:14:35;8.50;1.50;1.00
73749;PMS7003;62058;48.406;-4.514;2023-05-02T00:17:01;4.50;1.50;1.50
73749;PMS7003;62058;48.406;-4.514;2023-05-02T00:19:27;2.75;1.50;1.50
73749;PMS7003;62058;48.406;-4.514;2023-05-02T00:21:52;4.50;0.50;0.50
73749;PMS7003;62058;48.406;-4.514;2023-05-02T00:24:17;2.50;1.00;1.00
73749;PMS7003;62058;48.406;-4.514;2023-05-02T00:26:43;2.25;2.25;2.25
73749;PMS7003;62058;48.406;-4.514;2023-05-02T00:29:08;2.75;1.00;1.00
73749;PMS7003;62058;48.406;-4.514;2023-05-02T00:31:34;7.25;0.00;0.00
73749;PMS7003;62058;48.406;-4.514;2023-05-02T00:33:59;2.00;2.00;2.00
73749;PMS7003;62058;48.406;-4.514;2023-05-02T00:36:25;1.00;0.50;0.50
73749;PMS7003;62058;48.406;-4.514;2023-05-02T00:38:51;1.50;0.50;0.50
73749;PMS7003;62058;48.406;-4.514;2023-05-02T00:41:17;4.00;0.00;0.00
73749;PMS7003;62058;48.406;-4.514;2023-05-02T00:43:42;4.00;0.75;0.75
73749;PMS7003;62058;48.406;-4.514;2023-05-02T00:46:07;2.25;1.00;1.00
73749;PMS7003;62058;48.406;-4.514;2023-05-02T00:48:36;3.00;0.50;0.25
73749;PMS7003;62058;48.406;-4.514;2023-05-02T00:51:02;1.00;1.00;1.00
73749;PMS7003;62058;48.406;-4.514;2023-05-02T00:53:29;5.25;1.00;1.00
73749;PMS7003;62058;48.406;-4.514;2023-05-02T00:55:56;1.00;0.00;0.00
73749;PMS7003;62058;48.406;-4.514;2023-05-02T00:58:22;1.00;0.00;0.00
73749;PMS7003;62058;48.406;-4.514;2023-05-02T01:06:27;5.50;1.00;1.00
73749;PMS7003;62058;48.406;-4.514;2023-05-02T01:09:48;1.00;0.00;0.00
73749;PMS7003;62058;48.406;-4.514;2023-05-02T01:14:27;1.00;1.00;1.00
73749;PMS7003;62058;48.406;-4.514;2023-05-02T01:16:55;4.75;0.50;0.50
73749;PMS7003;62058;48.406;-4.514;2023-05-02T01:19:28;1.00;1.00;1.00
73749;PMS7003;62058;48.406;-4.514;2023-05-02T01:21:57;0.50;0.00;0.00
73749;PMS7003;62058;48.406;-4.514;2023-05-02T01:27:17;2.00;0.25;0.25
73749;PMS7003;62058;48.406;-4.514;2023-05-02T01:29:47;0.75;0.00;0.00
73749;PMS7003;62058;48.406;-4.514;2023-05-02T01:32:15;6.25;3.00;2.00
73749;PMS7003;62058;48.406;-4.514;2023-05-02T01:34:43;0.25;0.00;0.00
73749;PMS7003;62058;48.406;-4.514;2023-05-02T01:37:11;1.25;0.00;0.00
73749;PMS7003;62058;48.406;-4.514;2023-05-02T01:39:38;0.00;0.00;0.00
73749;PMS7003;62058;48.406;-4.514;2023-05-02T01:42:04;3.25;0.00;0.00
73749;PMS7003;62058;48.406;-4.514;2023-05-02T01:44:30;0.25;0.00;0.00
73749;PMS7003;62058;48.406;-4.514;2023-05-02T01:46:57;0.00;0.00;0.00
73749;PMS7003;62058;48.406;-4.514;2023-05-02T01:49:29;0.00;0.00;0.00
73749;PMS7003;62058;48.406;-4.514;2023-05-02T01:51:57;3.50;0.00;0.00
73749;PMS7003;62058;48.406;-4.514;2023-05-02T01:54:27;0.00;0.00;0.00
73749;PMS7003;62058;48.406;-4.514;2023-05-02T01:56:55;3.75;1.00;0.75
73749;PMS7003;62058;48.406;-4.514;2023-05-02T01:59:21;0.00;0.00;0.00
73749;PMS7003;62058;48.406;-4.514;2023-05-02T02:01:49;1.75;0.00;0.00
73749;PMS7003;62058;48.406;-4.514;2023-05-02T02:04:16;0.25;0.25;0.25
73749;PMS7003;62058;48.406;-4.514;2023-05-02T02:06:45;0.25;0.00;0.00
73749;PMS7003;62058;48.406;-4.514;2023-05-02T02:09:16;1.00;0.75;0.75
73749;PMS7003;62058;48.406;-4.514;2023-05-02T02:11:51;1.00;0.00;0.00
73749;PMS7003;62058;48.406;-4.514;2023-05-02T02:14:22;0.00;0.00;0.00
73749;PMS7003;62058;48.406;-4.514;2023-05-02T02:16:50;1.50;0.00;0.00
73749;PMS7003;62058;48.406;-4.514;2023-05-02T02:19:18;1.00;0.00;0.00
73749;PMS7003;62058;48.406;-4.514;2023-05-02T02:21:45;0.00;0.00;0.00
73749;PMS7003;62058;48.406;-4.514;2023-05-02T02:24:12;2.50;0.00;0.00
73749;PMS7003;62058;48.406;-4.514;2023-05-02T02:26:40;0.00;0.00;0.00
73749;PMS7003;62058;48.406;-4.514;2023-05-02T02:29:08;4.00;0.00;0.00
73749;PMS7003;62058;48.406;-4.514;2023-05-02T02:31:34;1.50;0.00;0.00
73749;PMS7003;62058;48.406;-4.514;2023-05-02T02:34:00;0.00;0.00;0.00
73749;PMS7003;62058;48.406;-4.514;2023-05-02T02:41:32;0.00;0.00;0.00
73749;PMS7003;62058;48.406;-4.514;2023-05-02T02:46:49;0.25;0.00;0.00
73749;PMS7003;62058;48.406;-4.514;2023-05-02T02:52:32;0.50;0.50;0.50
73749;PMS7003;62058;48.406;-4.514;2023-05-02T02:55:12;0.00;0.00;0.00
73749;PMS7003;62058;48.406;-4.514;2023-05-02T02:57:57;3.00;0.00;0.00
73749;PMS7003;62058;48.406;-4.514;2023-05-02T03:00:29;0.00;0.00;0.00
73749;PMS7003;62058;48.406;-4.514;2023-05-02T03:02:57;3.00;0.50;0.50
73749;PMS7003;62058;48.406;-4.514;2023-05-02T03:05:22;3.75;0.25;0.25
73749;PMS7003;62058;48.406;-4.514;2023-05-02T03:07:48;0.75;0.00;0.00
73749;PMS7003;62058;48.406;-4.514;2023-05-02T03:10:15;3.00;1.00;1.00
73749;PMS7003;62058;48.406;-4.514;2023-05-02T03:12:40;0.00;0.00;0.00
73749;PMS7003;62058;48.406;-4.514;2023-05-02T03:15:21;1.50;1.50;1.50
73749;PMS7003;62058;48.406;-4.514;2023-05-02T03:17:55;3.75;0.00;0.00
73749;PMS7003;62058;48.406;-4.514;2023-05-02T03:20:20;0.50;0.00;0.00
73749;PMS7003;62058;48.406;-4.514;2023-05-02T03:22:46;0.00;0.00;0.00
73749;PMS7003;62058;48.406;-4.514;2023-05-02T03:25:11;2.50;0.75;0.75
73749;PMS7003;62058;48.406;-4.514;2023-05-02T03:27:37;4.00;0.00;0.00
73749;PMS7003;62058;48.406;-4.514;2023-05-02T03:30:02;0.25;0.25;0.25
73749;PMS7003;62058;48.406;-4.514;2023-05-02T03:32:28;0.75;0.50;0.50
73749;PMS7003;62058;48.406;-4.514;2023-05-02T03:34:53;0.00;0.00;0.00
73749;PMS7003;62058;48.406;-4.514;2023-05-02T03:37:23;0.00;0.00;0.00
73749;PMS7003;62058;48.406;-4.514;2023-05-02T03:39:48;0.50;0.00;0.00
73749;PMS7003;62058;48.406;-4.514;2023-05-02T03:42:14;1.00;1.00;1.00
73749;PMS7003;62058;48.406;-4.514;2023-05-02T03:44:39;1.25;0.00;0.00
73749;PMS7003;62058;48.406;-4.514;2023-05-02T03:47:05;3.00;1.00;1.00
73749;PMS7003;62058;48.406;-4.514;2023-05-02T03:49:33;1.00;0.00;0.00
73749;PMS7003;62058;48.406;-4.514;2023-05-02T03:51:58;0.00;0.00;0.00
73749;PMS7003;62058;48.406;-4.514;2023-05-02T03:54:24;1.50;0.25;0.25
73749;PMS7003;62058;48.406;-4.514;2023-05-02T03:56:50;1.75;0.00;0.00
73749;PMS7003;62058;48.406;-4.514;2023-05-02T03:59:17;1.00;1.00;1.00
73749;PMS7003;62058;48.406;-4.514;2023-05-02T04:01:43;0.25;0.25;0.25
73749;PMS7003;62058;48.406;-4.514;2023-05-02T04:04:08;1.00;1.00;1.00
73749;PMS7003;62058;48.406;-4.514;2023-05-02T04:06:35;0.00;0.00;0.00
73749;PMS7003;62058;48.406;-4.514;2023-05-02T04:09:00;0.25;0.25;0.25
73749;PMS7003;62058;48.406;-4.514;2023-05-02T04:11:26;0.00;0.00;0.00
73749;PMS7003;62058;48.406;-4.514;2023-05-02T04:13:51;1.00;1.00;1.00
73749;PMS7003;62058;48.406;-4.514;2023-05-02T04:16:17;3.00;1.00;0.50
73749;PMS7003;62058;48.406;-4.514;2023-05-02T04:18:42;1.00;0.00;0.00
73749;PMS7003;62058;48.406;-4.514;2023-05-02T04:21:08;0.00;0.00;0.00
73749;PMS7003;62058;48.406;-4.514;2023-05-02T04:23:34;0.75;0.00;0.00
73749;PMS7003;62058;48.406;-4.514;2023-05-02T04:25:59;3.00;0.25;0.25
73749;PMS7003;62058;48.406;-4.514;2023-05-02T04:28:25;0.75;0.75;0.50
73749;PMS7003;62058;48.406;-4.514;2023-05-02T04:30:50;1.50;1.00;1.00
73749;PMS7003;62058;48.406;-4.514;2023-05-02T04:33:16;0.00;0.00;0.00
73749;PMS7003;62058;48.406;-4.514;2023-05-02T04:35:42;3.75;1.00;1.00
73749;PMS7003;62058;48.406;-4.514;2023-05-02T04:38:08;3.00;0.00;0.00
73749;PMS7003;62058;48.406;-4.514;2023-05-02T04:40:33;1.50;0.50;0.50
73749;PMS7003;62058;48.406;-4.514;2023-05-02T04:42:59;1.00;0.00;0.00
73749;PMS7003;62058;48.406;-4.514;2023-05-02T04:45:24;3.00;0.00;0.00
73749;PMS7003;62058;48.406;-4.514;2023-05-02T04:47:50;1.50;0.00;0.00
73749;PMS7003;62058;48.406;-4.514;2023-05-02T04:50:16;1.00;0.00;0.00
73749;PMS7003;62058;48.406;-4.514;2023-05-02T04:52:42;2.00;0.00;0.00
73749;PMS7003;62058;48.406;-4.514;2023-05-02T04:55:07;0.00;0.00;0.00
73749;PMS7003;62058;48.406;-4.514;2023-05-02T04:57:33;1.00;0.00;0.00
73749;PMS7003;62058;48.406;-4.514;2023-05-02T04:59:58;1.00;0.00;0.00
73749;PMS7003;62058;48.406;-4.514;2023-05-02T05:02:23;1.00;0.75;0.75
73749;PMS7003;62058;48.406;-4.514;2023-05-02T05:04:50;1.00;1.00;1.00
73749;PMS7003;62058;48.406;-4.514;2023-05-02T05:07:16;3.50;0.00;0.00
73749;PMS7003;62058;48.406;-4.514;2023-05-02T05:09:41;2.50;1.00;1.00
73749;PMS7003;62058;48.406;-4.514;2023-05-02T05:12:06;1.75;0.00;0.00
73749;PMS7003;62058;48.406;-4.514;2023-05-02T05:14:32;1.50;0.50;0.50
73749;PMS7003;62058;48.406;-4.514;2023-05-02T05:16:58;7.50;2.75;2.75
73749;PMS7003;62058;48.406;-4.514;2023-05-02T05:19:23;0.00;0.00;0.00
73749;PMS7003;62058;48.406;-4.514;2023-05-02T05:21:49;0.00;0.00;0.00
73749;PMS7003;62058;48.406;-4.514;2023-05-02T05:24:15;1.00;1.00;1.00
73749;PMS7003;62058;48.406;-4.514;2023-05-02T05:26:40;3.75;1.00;1.00
73749;PMS7003;62058;48.406;-4.514;2023-05-02T05:29:05;3.00;1.00;1.00
73749;PMS7003;62058;48.406;-4.514;2023-05-02T05:31:32;1.50;1.50;1.50
73749;PMS7003;62058;48.406;-4.514;2023-05-02T05:33:57;2.25;1.00;1.00
73749;PMS7003;62058;48.406;-4.514;2023-05-02T05:36:22;4.25;1.00;1.00
73749;PMS7003;62058;48.406;-4.514;2023-05-02T05:38:48;8.00;3.75;3.75
73749;PMS7003;62058;48.406;-4.514;2023-05-02T05:41:15;4.25;1.50;1.50
73749;PMS7003;62058;48.406;-4.514;2023-05-02T05:43:40;0.00;0.00;0.00
73749;PMS7003;62058;48.406;-4.514;2023-05-02T05:46:06;3.00;2.50;2.50
73749;PMS7003;62058;48.406;-4.514;2023-05-02T05:48:31;0.25;0.25;0.25
73749;PMS7003;62058;48.406;-4.514;2023-05-02T05:50:56;6.00;1.00;1.00
73749;PMS7003;62058;48.406;-4.514;2023-05-02T05:53:22;2.50;0.50;0.50
73749;PMS7003;62058;48.406;-4.514;2023-05-02T05:55:47;9.00;3.00;1.00
73749;PMS7003;62058;48.406;-4.514;2023-05-02T05:58:13;2.00;0.25;0.25
73749;PMS7003;62058;48.406;-4.514;2023-05-02T06:00:38;0.25;0.25;0.00
73749;PMS7003;62058;48.406;-4.514;2023-05-02T06:03:04;4.25;3.00;3.00
73749;PMS7003;62058;48.406;-4.514;2023-05-02T06:05:31;4.75;3.25;3.25
73749;PMS7003;62058;48.406;-4.514;2023-05-02T06:07:56;7.50;3.00;3.00
73749;PMS7003;62058;48.406;-4.514;2023-05-02T06:10:22;3.75;2.00;2.00
73749;PMS7003;62058;48.406;-4.514;2023-05-02T06:12:47;4.50;3.25;3.25
73749;PMS7003;62058;48.406;-4.514;2023-05-02T06:15:13;6.00;3.50;3.50
73749;PMS7003;62058;48.406;-4.514;2023-05-02T06:17:38;3.00;3.00;3.00
73749;PMS7003;62058;48.406;-4.514;2023-05-02T06:20:04;4.00;3.75;3.75
73749;PMS7003;62058;48.406;-4.514;2023-05-02T06:22:30;6.00;4.00;4.00
73749;PMS7003;62058;48.406;-4.514;2023-05-02T06:24:56;4.00;4.00;4.00
73749;PMS7003;62058;48.406;-4.514;2023-05-02T06:27:21;6.50;4.00;4.00
73749;PMS7003;62058;48.406;-4.514;2023-05-02T06:29:49;5.50;4.00;4.00
73749;PMS7003;62058;48.406;-4.514;2023-05-02T06:32:15;7.50;4.00;3.75
73749;PMS7003;62058;48.406;-4.514;2023-05-02T06:34:40;6.75;3.00;3.00
73749;PMS7003;62058;48.406;-4.514;2023-05-02T06:37:06;6.00;4.00;4.00
73749;PMS7003;62058;48.406;-4.514;2023-05-02T06:39:31;4.00;4.00;4.00
73749;PMS7003;62058;48.406;-4.514;2023-05-02T06:41:57;6.25;3.25;3.25
73749;PMS7003;62058;48.406;-4.514;2023-05-02T06:44:23;6.75;1.50;1.50
73749;PMS7003;62058;48.406;-4.514;2023-05-02T06:46:48;3.00;1.50;1.50
73749;PMS7003;62058;48.406;-4.514;2023-05-02T06:49:14;3.25;2.50;2.50
73749;PMS7003;62058;48.406;-4.514;2023-05-02T06:51:40;2.50;2.50;2.50
73749;PMS7003;62058;48.406;-4.514;2023-05-02T06:54:05;3.00;3.00;3.00
73749;PMS7003;62058;48.406;-4.514;2023-05-02T06:56:31;4.00;1.50;1.50
73749;PMS7003;62058;48.406;-4.514;2023-05-02T06:58:56;4.00;3.50;3.50
73749;PMS7003;62058;48.406;-4.514;2023-05-02T07:01:22;4.00;2.00;2.00
73749;PMS7003;62058;48.406;-4.514;2023-05-02T07:03:47;3.75;0.00;0.00
73749;PMS7003;62058;48.406;-4.514;2023-05-02T07:06:12;1.00;1.00;1.00
73749;PMS7003;62058;48.406;-4.514;2023-05-02T07:08:38;2.00;1.00;1.00
73749;PMS7003;62058;48.406;-4.514;2023-05-02T07:11:03;1.00;1.00;1.00
73749;PMS7003;62058;48.406;-4.514;2023-05-02T07:13:29;0.25;0.00;0.00
73749;PMS7003;62058;48.406;-4.514;2023-05-02T07:15:54;2.75;0.00;0.00
73749;PMS7003;62058;48.406;-4.514;2023-05-02T07:18:20;0.00;0.00;0.00
73749;PMS7003;62058;48.406;-4.514;2023-05-02T07:20:46;0.00;0.00;0.00
73749;PMS7003;62058;48.406;-4.514;2023-05-02T07:23:12;1.50;0.25;0.00
73749;PMS7003;62058;48.406;-4.514;2023-05-02T07:25:37;1.00;0.00;0.00
73749;PMS7003;62058;48.406;-4.514;2023-05-02T07:28:04;0.00;0.00;0.00
73749;PMS7003;62058;48.406;-4.514;2023-05-02T07:30:29;0.00;0.00;0.00
73749;PMS7003;62058;48.406;-4.514;2023-05-02T07:32:55;0.25;0.25;0.25
73749;PMS7003;62058;48.406;-4.514;2023-05-02T07:35:20;1.00;0.00;0.00
73749;PMS7003;62058;48.406;-4.514;2023-05-02T07:37:45;0.00;0.00;0.00
73749;PMS7003;62058;48.406;-4.514;2023-05-02T07:40:11;1.75;1.00;1.00
73749;PMS7003;62058;48.406;-4.514;2023-05-02T07:42:36;1.25;1.00;1.00
73749;PMS7003;62058;48.406;-4.514;2023-05-02T07:45:02;1.25;1.00;1.00
73749;PMS7003;62058;48.406;-4.514;2023-05-02T07:47:27;3.25;1.00;1.00
73749;PMS7003;62058;48.406;-4.514;2023-05-02T07:49:53;4.25;0.50;0.50
73749;PMS7003;62058;48.406;-4.514;2023-05-02T07:52:20;2.00;1.00;1.00
73749;PMS7003;62058;48.406;-4.514;2023-05-02T07:54:49;4.00;0.00;0.00
73749;PMS7003;62058;48.406;-4.514;2023-05-02T07:57:14;0.00;0.00;0.00
73749;PMS7003;62058;48.406;-4.514;2023-05-02T07:59:40;0.50;0.00;0.00
73749;PMS7003;62058;48.406;-4.514;2023-05-02T08:02:05;3.00;0.00;0.00
73749;PMS7003;62058;48.406;-4.514;2023-05-02T08:04:31;0.00;0.00;0.00
73749;PMS7003;62058;48.406;-4.514;2023-05-02T08:06:57;3.25;0.00;0.00
73749;PMS7003;62058;48.406;-4.514;2023-05-02T08:09:22;0.00;0.00;0.00
73749;PMS7003;62058;48.406;-4.514;2023-05-02T08:11:48;0.00;0.00;0.00
73749;PMS7003;62058;48.406;-4.514;2023-05-02T08:14:14;0.00;0.00;0.00
73749;PMS7003;62058;48.406;-4.514;2023-05-02T08:16:40;3.00;1.25;1.25
73749;PMS7003;62058;48.406;-4.514;2023-05-02T08:19:06;3.00;0.00;0.00
73749;PMS7003;62058;48.406;-4.514;2023-05-02T08:21:31;0.50;0.00;0.00
73749;PMS7003;62058;48.406;-4.514;2023-05-02T08:23:57;2.25;0.00;0.00
73749;PMS7003;62058;48.406;-4.514;2023-05-02T08:26:23;0.00;0.00;0.00
73749;PMS7003;62058;48.406;-4.514;2023-05-02T08:28:50;0.00;0.00;0.00
73749;PMS7003;62058;48.406;-4.514;2023-05-02T08:31:15;0.00;0.00;0.00
73749;PMS7003;62058;48.406;-4.514;2023-05-02T08:33:41;0.00;0.00;0.00
73749;PMS7003;62058;48.406;-4.514;2023-05-02T08:36:13;2.00;1.00;1.00
73749;PMS7003;62058;48.406;-4.514;2023-05-02T08:38:40;0.00;0.00;0.00
73749;PMS7003;62058;48.406;-4.514;2023-05-02T08:41:09;2.00;1.00;0.75
73749;PMS7003;62058;48.406;-4.514;2023-05-02T08:43:38;0.25;0.00;0.00
73749;PMS7003;62058;48.406;-4.514;2023-05-02T08:46:04;1.50;0.00;0.00
73749;PMS7003;62058;48.406;-4.514;2023-05-02T08:48:32;1.75;0.00;0.00
73749;PMS7003;62058;48.406;-4.514;2023-05-02T08:50:59;0.00;0.00;0.00
73749;PMS7003;62058;48.406;-4.514;2023-05-02T08:53:24;0.00;0.00;0.00
73749;PMS7003;62058;48.406;-4.514;2023-05-02T08:55:51;1.50;0.75;0.75
73749;PMS7003;62058;48.406;-4.514;2023-05-02T08:58:17;0.00;0.00;0.00
73749;PMS7003;62058;48.406;-4.514;2023-05-02T09:00:42;0.75;0.75;0.75
73749;PMS7003;62058;48.406;-4.514;2023-05-02T09:03:14;1.00;0.50;0.50
73749;PMS7003;62058;48.406;-4.514;2023-05-02T09:05:49;0.00;0.00;0.00
73749;PMS7003;62058;48.406;-4.514;2023-05-02T09:08:21;0.50;0.00;0.00
73749;PMS7003;62058;48.406;-4.514;2023-05-02T09:10:49;0.00;0.00;0.00
73749;PMS7003;62058;48.406;-4.514;2023-05-02T09:18:37;3.00;0.00;0.00
73749;PMS7003;62058;48.406;-4.514;2023-05-02T09:21:05;0.00;0.00;0.00
73749;PMS7003;62058;48.406;-4.514;2023-05-02T09:23:53;1.75;1.50;1.50
73749;PMS7003;62058;48.406;-4.514;2023-05-02T09:26:21;2.00;2.00;2.00
73749;PMS7003;62058;48.406;-4.514;2023-05-02T09:31:14;1.50;1.50;1.50
73749;PMS7003;62058;48.406;-4.514;2023-05-02T09:33:41;2.00;0.75;0.50
73749;PMS7003;62058;48.406;-4.514;2023-05-02T09:36:11;2.25;1.00;1.00
73749;PMS7003;62058;48.406;-4.514;2023-05-02T09:38:38;2.00;0.50;0.50
73749;PMS7003;62058;48.406;-4.514;2023-05-02T09:41:05;2.25;0.00;0.00
73749;PMS7003;62058;48.406;-4.514;2023-05-02T09:43:30;1.00;1.00;1.00
73749;PMS7003;62058;48.406;-4.514;2023-05-02T09:46:01;0.00;0.00;0.00
73749;PMS7003;62058;48.406;-4.514;2023-05-02T09:48:50;1.75;0.00;0.00
73749;PMS7003;62058;48.406;-4.514;2023-05-02T09:51:20;0.00;0.00;0.00
73749;PMS7003;62058;48.406;-4.514;2023-05-02T09:53:46;0.00;0.00;0.00
73749;PMS7003;62058;48.406;-4.514;2023-05-02T09:56:12;0.75;0.75;0.75
73749;PMS7003;62058;48.406;-4.514;2023-05-02T09:58:37;0.50;0.50;0.50
73749;PMS7003;62058;48.406;-4.514;2023-05-02T10:01:03;0.50;0.50;0.50
73749;PMS7003;62058;48.406;-4.514;2023-05-02T10:03:28;0.50;0.50;0.50
73749;PMS7003;62058;48.406;-4.514;2023-05-02T10:05:56;2.00;0.00;0.00
73749;PMS7003;62058;48.406;-4.514;2023-05-02T10:08:24;2.50;1.00;1.00
73749;PMS7003;62058;48.406;-4.514;2023-05-02T10:10:54;0.25;0.25;0.25
73749;PMS7003;62058;48.406;-4.514;2023-05-02T10:13:22;1.50;1.00;1.00
73749;PMS7003;62058;48.406;-4.514;2023-05-02T10:15:57;0.25;0.25;0.25
73749;PMS7003;62058;48.406;-4.514;2023-05-02T10:18:26;3.00;0.25;0.25
73749;PMS7003;62058;48.406;-4.514;2023-05-02T10:20:55;1.00;0.00;0.00
73749;PMS7003;62058;48.406;-4.514;2023-05-02T10:23:26;0.75;0.75;0.75
73749;PMS7003;62058;48.406;-4.514;2023-05-02T10:25:52;0.00;0.00;0.00
73749;PMS7003;62058;48.406;-4.514;2023-05-02T10:28:18;1.50;0.50;0.50
73749;PMS7003;62058;48.406;-4.514;2023-05-02T10:30:44;0.00;0.00;0.00
73749;PMS7003;62058;48.406;-4.514;2023-05-02T10:33:12;1.50;0.00;0.00
73749;PMS7003;62058;48.406;-4.514;2023-05-02T10:35:38;0.00;0.00;0.00
73749;PMS7003;62058;48.406;-4.514;2023-05-02T10:38:09;0.25;0.00;0.00
73749;PMS7003;62058;48.406;-4.514;2023-05-02T10:40:35;0.50;0.50;0.50
73749;PMS7003;62058;48.406;-4.514;2023-05-02T10:43:03;0.00;0.00;0.00
73749;PMS7003;62058;48.406;-4.514;2023-05-02T10:53:22;4.25;0.00;0.00
73749;PMS7003;62058;48.406;-4.514;2023-05-02T10:56:12;1.25;0.00;0.00
73749;PMS7003;62058;48.406;-4.514;2023-05-02T10:58:50;5.00;1.00;1.00
73749;PMS7003;62058;48.406;-4.514;2023-05-02T11:03:52;0.00;0.00;0.00
73749;PMS7003;62058;48.406;-4.514;2023-05-02T11:06:19;0.00;0.00;0.00
73749;PMS7003;62058;48.406;-4.514;2023-05-02T11:08:45;0.75;0.75;0.75
73749;PMS7003;62058;48.406;-4.514;2023-05-02T11:14:05;2.00;0.75;0.75
73749;PMS7003;62058;48.406;-4.514;2023-05-02T11:17:04;0.00;0.00;0.00
73749;PMS7003;62058;48.406;-4.514;2023-05-02T11:19:25;2.75;0.00;0.00
73749;PMS7003;62058;48.406;-4.514;2023-05-02T11:21:51;3.00;0.00;0.00
73749;PMS7003;62058;48.406;-4.514;2023-05-02T11:24:40;1.75;0.25;0.00
73749;PMS7003;62058;48.406;-4.514;2023-05-02T11:29:54;0.00;0.00;0.00
73749;PMS7003;62058;48.406;-4.514;2023-05-02T11:35:13;0.00;0.00;0.00
73749;PMS7003;62058;48.406;-4.514;2023-05-02T11:37:41;0.50;0.50;0.50
73749;PMS7003;62058;48.406;-4.514;2023-05-02T11:40:10;2.75;1.00;1.00
73749;PMS7003;62058;48.406;-4.514;2023-05-02T11:42:36;0.75;0.75;0.75
73749;PMS7003;62058;48.406;-4.514;2023-05-02T11:45:02;0.50;0.50;0.50
73749;PMS7003;62058;48.406;-4.514;2023-05-02T11:47:27;0.50;0.50;0.50
73749;PMS7003;62058;48.406;-4.514;2023-05-02T11:49:57;0.25;0.25;0.00
73749;PMS7003;62058;48.406;-4.514;2023-05-02T11:52:26;3.00;0.75;0.75
73749;PMS7003;62058;48.406;-4.514;2023-05-02T11:54:54;1.75;0.25;0.25
73749;PMS7003;62058;48.406;-4.514;2023-05-02T11:57:20;0.00;0.00;0.00
73749;PMS7003;62058;48.406;-4.514;2023-05-02T11:59:53;2.00;2.00;2.00
73749;PMS7003;62058;48.406;-4.514;2023-05-02T12:02:21;1.00;1.00;1.00
73749;PMS7003;62058;48.406;-4.514;2023-05-02T12:05:03;1.75;1.00;1.00
73749;PMS7003;62058;48.406;-4.514;2023-05-02T12:07:35;1.00;1.00;1.00
73749;PMS7003;62058;48.406;-4.514;2023-05-02T12:10:04;0.75;0.00;0.00
73749;PMS7003;62058;48.406;-4.514;2023-05-02T12:12:31;2.00;0.50;0.50
73749;PMS7003;62058;48.406;-4.514;2023-05-02T12:14:56;2.00;1.00;1.00
73749;PMS7003;62058;48.406;-4.514;2023-05-02T12:17:22;1.00;0.75;0.75
73749;PMS7003;62058;48.406;-4.514;2023-05-02T12:19:48;0.50;0.50;0.50
73749;PMS7003;62058;48.406;-4.514;2023-05-02T12:22:14;1.00;1.00;1.00
73749;PMS7003;62058;48.406;-4.514;2023-05-02T12:24:40;0.00;0.00;0.00
73749;PMS7003;62058;48.406;-4.514;2023-05-02T12:27:07;1.75;1.00;1.00
73749;PMS7003;62058;48.406;-4.514;2023-05-02T12:29:40;1.00;1.00;1.00
73749;PMS7003;62058;48.406;-4.514;2023-05-02T12:32:07;2.00;1.00;1.00
73749;PMS7003;62058;48.406;-4.514;2023-05-02T12:34:34;2.75;1.00;1.00
73749;PMS7003;62058;48.406;-4.514;2023-05-02T12:37:00;0.50;0.50;0.50
73749;PMS7003;62058;48.406;-4.514;2023-05-02T12:42:08;2.25;0.00;0.00
73749;PMS7003;62058;48.406;-4.514;2023-05-02T12:44:38;1.00;0.00;0.00
73749;PMS7003;62058;48.406;-4.514;2023-05-02T12:47:04;0.00;0.00;0.00
73749;PMS7003;62058;48.406;-4.514;2023-05-02T12:49:31;0.00;0.00;0.00
73749;PMS7003;62058;48.406;-4.514;2023-05-02T12:51:56;0.25;0.25;0.25
73749;PMS7003;62058;48.406;-4.514;2023-05-02T12:54:22;1.00;0.25;0.25
73749;PMS7003;62058;48.406;-4.514;2023-05-02T12:56:49;2.00;0.00;0.00
73749;PMS7003;62058;48.406;-4.514;2023-05-02T12:59:31;0.00;0.00;0.00
73749;PMS7003;62058;48.406;-4.514;2023-05-02T13:01:57;0.00;0.00;0.00
73749;PMS7003;62058;48.406;-4.514;2023-05-02T13:04:33;1.00;0.25;0.25
73749;PMS7003;62058;48.406;-4.514;2023-05-02T13:07:04;0.00;0.00;0.00
73749;PMS7003;62058;48.406;-4.514;2023-05-02T13:09:29;0.00;0.00;0.00
73749;PMS7003;62058;48.406;-4.514;2023-05-02T13:11:55;0.00;0.00;0.00
73749;PMS7003;62058;48.406;-4.514;2023-05-02T13:14:21;0.00;0.00;0.00
73749;PMS7003;62058;48.406;-4.514;2023-05-02T13:16:46;0.00;0.00;0.00
73749;PMS7003;62058;48.406;-4.514;2023-05-02T13:19:13;0.25;0.00;0.00
73749;PMS7003;62058;48.406;-4.514;2023-05-02T13:21:39;0.00;0.00;0.00
73749;PMS7003;62058;48.406;-4.514;2023-05-02T13:24:04;0.75;0.00;0.00
73749;PMS7003;62058;48.406;-4.514;2023-05-02T13:26:30;1.00;0.75;0.75
73749;PMS7003;62058;48.406;-4.514;2023-05-02T13:28:56;0.00;0.00;0.00
73749;PMS7003;62058;48.406;-4.514;2023-05-02T13:31:21;0.00;0.00;0.00
73749;PMS7003;62058;48.406;-4.514;2023-05-02T13:33:47;3.75;0.00;0.00
73749;PMS7003;62058;48.406;-4.514;2023-05-02T13:36:13;0.00;0.00;0.00
73749;PMS7003;62058;48.406;-4.514;2023-05-02T13:38:38;3.00;0.00;0.00
73749;PMS7003;62058;48.406;-4.514;2023-05-02T13:41:04;1.00;0.00;0.00
73749;PMS7003;62058;48.406;-4.514;2023-05-02T13:43:31;0.00;0.00;0.00
73749;PMS7003;62058;48.406;-4.514;2023-05-02T13:45:57;0.00;0.00;0.00
73749;PMS7003;62058;48.406;-4.514;2023-05-02T13:48:22;0.75;0.00;0.00
73749;PMS7003;62058;48.406;-4.514;2023-05-02T13:50:47;0.00;0.00;0.00
73749;PMS7003;62058;48.406;-4.514;2023-05-02T13:53:13;0.00;0.00;0.00
73749;PMS7003;62058;48.406;-4.514;2023-05-02T13:55:38;1.75;0.00;0.00
73749;PMS7003;62058;48.406;-4.514;2023-05-02T13:58:04;0.00;0.00;0.00
73749;PMS7003;62058;48.406;-4.514;2023-05-02T14:00:29;0.50;0.00;0.00
73749;PMS7003;62058;48.406;-4.514;2023-05-02T14:02:55;0.00;0.00;0.00
73749;PMS7003;62058;48.406;-4.514;2023-05-02T14:05:20;0.00;0.00;0.00
73749;PMS7003;62058;48.406;-4.514;2023-05-02T14:07:46;0.25;0.25;0.25
73749;PMS7003;62058;48.406;-4.514;2023-05-02T14:10:11;0.00;0.00;0.00
73749;PMS7003;62058;48.406;-4.514;2023-05-02T14:12:36;0.50;0.00;0.00
73749;PMS7003;62058;48.406;-4.514;2023-05-02T14:15:02;1.25;1.00;1.00
73749;PMS7003;62058;48.406;-4.514;2023-05-02T14:17:27;2.00;0.00;0.00
73749;PMS7003;62058;48.406;-4.514;2023-05-02T14:19:53;0.50;0.00;0.00
73749;PMS7003;62058;48.406;-4.514;2023-05-02T14:22:18;0.00;0.00;0.00
73749;PMS7003;62058;48.406;-4.514;2023-05-02T14:24:43;0.00;0.00;0.00
73749;PMS7003;62058;48.406;-4.514;2023-05-02T14:27:09;0.00;0.00;0.00
73749;PMS7003;62058;48.406;-4.514;2023-05-02T14:29:37;1.00;0.00;0.00
73749;PMS7003;62058;48.406;-4.514;2023-05-02T14:32:03;0.00;0.00;0.00
73749;PMS7003;62058;48.406;-4.514;2023-05-02T14:34:29;0.50;0.00;0.00
73749;PMS7003;62058;48.406;-4.514;2023-05-02T14:36:54;0.50;0.00;0.00
73749;PMS7003;62058;48.406;-4.514;2023-05-02T14:39:20;0.75;0.75;0.75
73749;PMS7003;62058;48.406;-4.514;2023-05-02T14:41:46;0.00;0.00;0.00
73749;PMS7003;62058;48.406;-4.514;2023-05-02T14:44:11;0.75;0.00;0.00
73749;PMS7003;62058;48.406;-4.514;2023-05-02T14:46:36;0.00;0.00;0.00
73749;PMS7003;62058;48.406;-4.514;2023-05-02T14:49:02;1.00;0.00;0.00
73749;PMS7003;62058;48.406;-4.514;2023-05-02T14:51:27;0.00;0.00;0.00
73749;PMS7003;62058;48.406;-4.514;2023-05-02T14:53:53;1.00;0.00;0.00
73749;PMS7003;62058;48.406;-4.514;2023-05-02T14:56:18;2.00;1.25;1.25
73749;PMS7003;62058;48.406;-4.514;2023-05-02T14:58:44;2.25;0.75;0.75